createdAt,value
2023-11-30T00:00:02.491Z,100.00
2023-11-30T00:02:34.235Z,100.00
2023-11-30T00:05:04.894Z,100.00
2023-11-30T00:07:35.033Z,100.00
2023-11-30T00:10:04.415Z,100.00
2023-11-30T00:12:34.434Z,100.00
2023-11-30T00:15:03.264Z,100.00
2023-11-30T00:17:35.387Z,100.00
2023-11-30T00:20:04.043Z,100.00
2023-11-30T00:22:34.692Z,100.00
2023-11-30T00:25:04.238Z,100.00
2023-11-30T00:27:33.140Z,100.00
2023-11-30T00:30:01.740Z,100.00
2023-11-30T00:32:34.999Z,100.00
2023-11-30T00:35:03.691Z,100.00
2023-11-30T00:37:35.052Z,100.00
2023-11-30T00:40:05.200Z,100.00
2023-11-30T00:42:34.064Z,100.00
2023-11-30T00:45:02.859Z,100.00
2023-11-30T00:47:32.987Z,100.00
2023-11-30T00:50:01.670Z,100.00
2023-11-30T00:52:34.888Z,100.00
2023-11-30T00:55:04.557Z,100.00
2023-11-30T00:57:33.341Z,100.00
2023-11-30T01:00:02.892Z,100.00
2023-11-30T01:02:33.647Z,100.00
2023-11-30T01:05:02.201Z,100.00
2023-11-30T01:07:32.592Z,100.00
2023-11-30T01:10:02.632Z,100.00
2023-11-30T01:12:32.676Z,100.00
2023-11-30T01:15:02.002Z,100.00
2023-11-30T01:17:33.861Z,100.00
2023-11-30T01:20:02.485Z,100.00
2023-11-30T01:22:33.007Z,100.00
2023-11-30T01:25:03.948Z,100.00
2023-11-30T01:27:32.646Z,100.00
2023-11-30T01:30:01.349Z,100.00
2023-11-30T01:32:30.690Z,100.00
2023-11-30T01:34:59.571Z,100.00
2023-11-30T01:37:28.353Z,100.00
2023-11-30T01:39:56.984Z,100.00
2023-11-30T01:42:27.096Z,100.00
2023-11-30T01:44:55.786Z,100.00
2023-11-30T01:47:24.723Z,100.00
2023-11-30T01:49:53.982Z,100.00
2023-11-30T01:52:22.677Z,100.00
2023-11-30T01:54:51.603Z,100.00
2023-11-30T01:57:20.635Z,100.00
2023-11-30T01:59:50.868Z,100.00
2023-11-30T02:02:19.748Z,100.00
2023-11-30T02:04:52.270Z,100.00
2023-11-30T02:07:21.492Z,100.00
2023-11-30T02:09:50.131Z,100.00
2023-11-30T02:12:19.220Z,100.00
2023-11-30T02:14:48.152Z,100.00
2023-11-30T02:17:18.306Z,100.00
2023-11-30T02:19:47.093Z,100.00
2023-11-30T02:22:18.847Z,100.00
2023-11-30T02:24:49.001Z,100.00
2023-11-30T02:27:18.672Z,100.00
2023-11-30T02:29:47.285Z,100.00
2023-11-30T02:32:16.810Z,100.00
2023-11-30T02:34:45.370Z,100.00
2023-11-30T02:37:14.296Z,100.00
2023-11-30T02:39:44.425Z,100.00
2023-11-30T02:42:13.208Z,100.00
2023-11-30T02:44:42.391Z,100.00
2023-11-30T02:47:10.927Z,100.00
2023-11-30T02:49:39.485Z,100.00
2023-11-30T02:52:08.396Z,100.00
2023-11-30T02:54:36.997Z,100.00
2023-11-30T02:57:07.504Z,100.00
2023-11-30T02:59:36.313Z,100.00
2023-11-30T03:02:05.679Z,100.00
2023-11-30T03:04:34.616Z,100.00
2023-11-30T03:07:03.208Z,100.00
2023-11-30T03:09:31.979Z,100.00
2023-11-30T03:12:00.586Z,100.00
2023-11-30T03:14:30.694Z,100.00
2023-11-30T03:16:59.670Z,100.00
2023-11-30T03:19:28.238Z,100.00
2023-11-30T03:21:56.984Z,100.00
2023-11-30T03:24:26.052Z,100.00
2023-11-30T03:26:54.738Z,100.00
2023-11-30T03:29:23.336Z,100.00
2023-11-30T03:31:54.256Z,100.00
2023-11-30T03:34:23.227Z,100.00
2023-11-30T03:36:52.040Z,100.00
2023-11-30T03:39:20.766Z,100.00
2023-11-30T03:41:49.471Z,100.00
2023-11-30T03:44:18.046Z,100.00
2023-11-30T03:46:47.006Z,100.00
2023-11-30T03:49:17.012Z,100.00
2023-11-30T03:51:45.599Z,100.00
2023-11-30T03:54:14.596Z,100.00
2023-11-30T03:56:43.126Z,100.00
2023-11-30T03:59:12.629Z,100.00
2023-11-30T04:01:41.206Z,100.00
2023-11-30T04:04:09.967Z,100.00
2023-11-30T04:06:40.130Z,100.00
2023-11-30T04:09:09.935Z,100.00
2023-11-30T04:11:38.685Z,100.00
2023-11-30T04:14:08.769Z,100.00
2023-11-30T04:16:38.620Z,100.00
2023-11-30T04:19:09.032Z,100.00
2023-11-30T04:21:37.582Z,100.00
2023-11-30T04:24:08.214Z,100.00
2023-11-30T04:26:36.862Z,100.00
2023-11-30T04:29:05.664Z,100.00
2023-11-30T04:31:34.357Z,100.00
2023-11-30T04:34:03.001Z,100.00
2023-11-30T04:36:31.953Z,100.00
2023-11-30T04:39:01.263Z,100.00
2023-11-30T04:41:31.291Z,100.00
2023-11-30T04:43:59.891Z,100.00
2023-11-30T04:46:29.040Z,100.00
2023-11-30T04:48:57.881Z,100.00
2023-11-30T04:51:27.094Z,100.00
2023-11-30T04:53:55.759Z,100.00
2023-11-30T04:56:24.905Z,100.00
2023-11-30T04:58:54.963Z,100.00
2023-11-30T05:01:23.551Z,100.00
2023-11-30T05:03:52.519Z,100.00
2023-11-30T05:06:21.323Z,100.00
2023-11-30T05:08:50.195Z,100.00
2023-11-30T05:11:19.037Z,100.00
2023-11-30T05:13:47.613Z,100.00
2023-11-30T05:16:17.585Z,100.00
2023-11-30T05:18:46.118Z,100.00
2023-11-30T05:21:14.970Z,100.00
2023-11-30T05:23:43.554Z,100.00
2023-11-30T05:26:12.193Z,100.00
2023-11-30T05:28:41.015Z,100.00
2023-11-30T05:31:10.110Z,100.00
2023-11-30T05:33:40.576Z,100.00
2023-11-30T05:36:10.486Z,100.00
2023-11-30T05:38:39.064Z,100.00
2023-11-30T05:41:07.998Z,100.00
2023-11-30T05:43:38.201Z,100.00
2023-11-30T05:46:07.671Z,100.00
2023-11-30T05:48:36.343Z,100.00
2023-11-30T05:51:07.008Z,100.00
2023-11-30T05:53:35.599Z,100.00
2023-11-30T05:56:04.183Z,100.00
2023-11-30T05:58:33.580Z,100.00
2023-11-30T06:01:03.061Z,100.00
2023-11-30T06:03:32.062Z,100.00
2023-11-30T06:06:00.823Z,100.00
2023-11-30T06:08:30.794Z,100.00
2023-11-30T06:11:00.021Z,100.00
2023-11-30T06:13:28.582Z,100.00
2023-11-30T06:15:57.305Z,100.00
2023-11-30T06:18:26.217Z,100.00
2023-11-30T06:20:55.099Z,100.00
2023-11-30T06:23:23.807Z,100.00
2023-11-30T06:25:53.762Z,100.00
2023-11-30T06:28:22.463Z,100.00
2023-11-30T06:30:51.003Z,100.00
2023-11-30T06:33:19.930Z,100.00
2023-11-30T06:35:48.580Z,100.00
2023-11-30T06:38:17.947Z,100.00
2023-11-30T06:40:46.800Z,100.00
2023-11-30T06:43:17.201Z,100.00
2023-11-30T06:45:46.150Z,100.00
2023-11-30T06:48:14.831Z,100.00
2023-11-30T06:50:43.575Z,100.00
2023-11-30T06:53:12.392Z,100.00
2023-11-30T06:55:40.968Z,100.00
2023-11-30T06:58:09.514Z,100.00
2023-11-30T07:00:39.600Z,100.00
2023-11-30T07:03:08.345Z,100.00
2023-11-30T07:05:37.105Z,100.00
2023-11-30T07:08:05.984Z,100.00
2023-11-30T07:10:34.773Z,100.00
2023-11-30T07:13:03.343Z,100.00
2023-11-30T07:15:32.421Z,100.00
2023-11-30T07:18:02.971Z,100.00
2023-11-30T07:20:31.633Z,100.00
2023-11-30T07:23:01.177Z,100.00
2023-11-30T07:25:29.722Z,100.00
2023-11-30T07:27:58.786Z,100.00
2023-11-30T07:30:27.388Z,100.00
2023-11-30T07:32:56.040Z,100.00
2023-11-30T07:35:27.411Z,100.00
2023-11-30T07:37:56.412Z,100.00
2023-11-30T07:40:25.012Z,100.00
2023-11-30T07:42:53.665Z,100.00
2023-11-30T07:45:22.445Z,100.00
2023-11-30T07:47:51.563Z,100.00
2023-11-30T07:50:21.289Z,100.00
2023-11-30T07:52:51.217Z,100.00
2023-11-30T07:55:19.728Z,100.00
2023-11-30T07:57:48.778Z,100.00
2023-11-30T08:00:18.230Z,100.00
2023-11-30T08:02:46.837Z,99.46
2023-11-30T08:05:16.128Z,98.84
2023-11-30T08:07:44.722Z,98.58
2023-11-30T08:10:14.820Z,99.10
2023-11-30T08:12:43.424Z,99.05
2023-11-30T08:15:12.433Z,97.89
2023-11-30T08:17:41.191Z,97.20
2023-11-30T08:20:15.265Z,96.18
2023-11-30T08:22:43.972Z,95.51
2023-11-30T08:25:13.239Z,94.57
2023-11-30T08:27:49.135Z,93.80
2023-11-30T08:30:19.936Z,92.72
2023-11-30T08:32:48.578Z,93.00
2023-11-30T08:35:17.385Z,92.81
2023-11-30T08:37:46.216Z,92.88
2023-11-30T08:40:14.881Z,93.67
2023-11-30T08:42:44.958Z,94.04
2023-11-30T08:45:13.803Z,93.18
2023-11-30T08:47:43.340Z,92.88
2023-11-30T08:50:13.293Z,92.74
2023-11-30T08:52:41.853Z,93.39
2023-11-30T08:55:10.670Z,92.95
2023-11-30T08:57:42.048Z,92.90
2023-11-30T09:00:14.557Z,93.10
2023-11-30T09:02:43.632Z,93.43
2023-11-30T09:05:13.529Z,93.87
2023-11-30T09:07:42.299Z,92.67
2023-11-30T09:10:11.864Z,92.86
2023-11-30T09:12:40.689Z,93.06
2023-11-30T09:15:11.637Z,92.38
2023-11-30T09:17:41.854Z,92.73
2023-11-30T09:20:11.295Z,92.87
2023-11-30T09:22:40.861Z,93.63
2023-11-30T09:25:11.763Z,93.57
2023-11-30T09:27:40.602Z,93.97
2023-11-30T09:30:12.046Z,94.38
2023-11-30T09:32:42.439Z,94.58
2023-11-30T09:35:12.718Z,94.69
2023-11-30T09:37:41.486Z,94.28
2023-11-30T09:40:11.771Z,94.48
2023-11-30T09:42:40.425Z,94.64
2023-11-30T09:45:10.552Z,95.60
2023-11-30T09:47:38.384Z,96.07
2023-11-30T09:50:09.534Z,96.99
2023-11-30T09:52:38.868Z,96.47
2023-11-30T09:55:12.406Z,95.65
2023-11-30T09:57:41.733Z,92.87
2023-11-30T10:00:12.487Z,91.70
2023-11-30T10:02:41.170Z,93.21
2023-11-30T10:05:11.521Z,91.69
2023-11-30T10:07:40.606Z,91.70
2023-11-30T10:10:10.304Z,92.04
2023-11-30T10:12:38.908Z,92.36
2023-11-30T10:15:08.533Z,91.25
2023-11-30T10:17:37.940Z,91.39
2023-11-30T10:20:12.425Z,90.75
2023-11-30T10:22:42.752Z,90.52
2023-11-30T10:25:11.868Z,87.64
2023-11-30T10:27:40.783Z,84.53
2023-11-30T10:30:13.031Z,84.17
2023-11-30T10:32:42.300Z,83.32
2023-11-30T10:35:16.011Z,82.58
2023-11-30T10:37:47.999Z,83.06
2023-11-30T10:40:19.173Z,83.86
2023-11-30T10:42:50.024Z,83.43
2023-11-30T10:45:19.187Z,82.33
2023-11-30T10:47:48.375Z,83.66
2023-11-30T10:50:16.918Z,83.94
2023-11-30T10:52:47.598Z,84.02
2023-11-30T10:55:21.468Z,84.41
2023-11-30T10:57:50.546Z,84.44
2023-11-30T11:00:23.658Z,83.93
2023-11-30T11:02:52.307Z,85.13
2023-11-30T11:05:22.346Z,84.58
2023-11-30T11:07:53.776Z,84.42
2023-11-30T11:10:24.490Z,84.63
2023-11-30T11:12:54.343Z,84.96
2023-11-30T11:15:25.828Z,85.10
2023-11-30T11:17:55.706Z,85.31
2023-11-30T11:20:26.677Z,84.91
2023-11-30T11:22:58.772Z,85.16
2023-11-30T11:25:27.845Z,84.86
2023-11-30T11:27:57.551Z,84.97
2023-11-30T11:30:28.196Z,83.51
2023-11-30T11:33:00.426Z,82.78
2023-11-30T11:35:29.469Z,83.26
2023-11-30T11:38:00.332Z,83.24
2023-11-30T11:40:29.493Z,80.99
2023-11-30T11:42:58.128Z,81.61
2023-11-30T11:45:26.834Z,81.68
2023-11-30T11:47:56.001Z,81.28
2023-11-30T11:50:24.731Z,81.46
2023-11-30T11:52:53.340Z,81.83
2023-11-30T11:55:26.004Z,82.01
2023-11-30T11:57:55.278Z,83.07
2023-11-30T12:00:25.804Z,84.53
2023-11-30T12:03:06.089Z,83.96
2023-11-30T12:05:34.848Z,83.14
2023-11-30T12:08:04.413Z,83.68
2023-11-30T12:10:35.821Z,84.15
2023-11-30T12:13:04.820Z,82.36
2023-11-30T12:15:33.892Z,83.12
2023-11-30T12:18:03.373Z,83.61
2023-11-30T12:20:32.923Z,83.73
2023-11-30T12:23:02.236Z,84.34
2023-11-30T12:25:30.898Z,85.42
2023-11-30T12:28:00.852Z,86.07
2023-11-30T12:30:29.447Z,85.54
2023-11-30T12:32:58.228Z,85.28
2023-11-30T12:35:27.102Z,85.24
2023-11-30T12:37:55.956Z,86.24
2023-11-30T12:40:24.726Z,87.07
2023-11-30T12:42:53.485Z,86.65
2023-11-30T12:45:23.824Z,85.72
2023-11-30T12:47:52.640Z,86.37
2023-11-30T12:50:21.820Z,86.52
2023-11-30T12:52:50.547Z,85.76
2023-11-30T12:55:20.021Z,84.03
2023-11-30T12:57:49.870Z,84.08
2023-11-30T13:00:19.823Z,83.72
2023-11-30T13:02:50.017Z,82.99
2023-11-30T13:05:18.747Z,84.63
2023-11-30T13:07:47.583Z,84.29
2023-11-30T13:10:16.300Z,83.63
2023-11-30T13:12:45.176Z,83.67
2023-11-30T13:15:14.381Z,82.96
2023-11-30T13:17:43.348Z,82.78
2023-11-30T13:20:15.704Z,83.81
2023-11-30T13:22:46.295Z,83.08
2023-11-30T13:25:16.273Z,83.78
2023-11-30T13:27:47.718Z,85.00
2023-11-30T13:30:18.771Z,85.53
2023-11-30T13:32:48.678Z,86.27
2023-11-30T13:35:19.019Z,85.96
2023-11-30T13:37:48.550Z,86.16
2023-11-30T13:40:19.932Z,86.73
2023-11-30T13:42:48.656Z,87.08
2023-11-30T13:45:17.325Z,87.84
2023-11-30T13:47:49.230Z,87.62
2023-11-30T13:50:26.419Z,88.54
2023-11-30T13:53:00.979Z,87.67
2023-11-30T13:55:30.292Z,88.09
2023-11-30T13:57:59.028Z,88.44
2023-11-30T14:00:27.889Z,88.66
2023-11-30T14:02:56.617Z,89.80
2023-11-30T14:05:26.799Z,90.35
2023-11-30T14:07:55.662Z,89.98
2023-11-30T14:10:24.866Z,89.73
2023-11-30T14:12:53.641Z,89.92
2023-11-30T14:15:22.417Z,89.78
2023-11-30T14:17:52.032Z,90.09
2023-11-30T14:20:21.423Z,90.37
2023-11-30T14:22:51.457Z,89.54
2023-11-30T14:25:22.714Z,89.20
2023-11-30T14:27:51.506Z,88.71
2023-11-30T14:30:20.306Z,87.70
2023-11-30T14:32:49.063Z,87.74
2023-11-30T14:35:17.809Z,87.58
2023-11-30T14:37:46.668Z,86.97
2023-11-30T14:40:16.623Z,86.33
2023-11-30T14:42:46.138Z,86.10
2023-11-30T14:45:14.945Z,84.88
2023-11-30T14:47:45.342Z,84.71
2023-11-30T14:50:16.634Z,85.81
2023-11-30T14:52:46.717Z,86.10
2023-11-30T14:55:16.987Z,85.78
2023-11-30T14:57:46.055Z,85.73
2023-11-30T15:00:18.490Z,85.57
2023-11-30T15:02:47.274Z,85.62
2023-11-30T15:05:16.428Z,85.59
2023-11-30T15:07:45.286Z,85.63
2023-11-30T15:10:14.883Z,85.87
2023-11-30T15:12:45.698Z,85.45
2023-11-30T15:15:16.543Z,84.78
2023-11-30T15:17:46.461Z,84.76
2023-11-30T15:20:16.162Z,84.62
2023-11-30T15:22:45.363Z,84.25
2023-11-30T15:25:18.567Z,84.69
2023-11-30T15:27:50.851Z,84.03
2023-11-30T15:30:20.168Z,84.90
2023-11-30T15:32:48.933Z,85.01
2023-11-30T15:35:17.855Z,84.76
2023-11-30T15:37:50.713Z,84.14
2023-11-30T15:40:22.543Z,84.24
2023-11-30T15:42:52.928Z,84.59
2023-11-30T15:45:23.871Z,84.73
2023-11-30T15:47:53.019Z,84.76
2023-11-30T15:50:22.016Z,84.44
2023-11-30T15:52:52.557Z,84.27
2023-11-30T15:55:21.122Z,84.80
2023-11-30T15:57:49.944Z,84.30
2023-11-30T16:00:21.745Z,84.68
2023-11-30T16:02:50.839Z,84.41
2023-11-30T16:05:19.706Z,85.02
2023-11-30T16:07:48.366Z,85.62
2023-11-30T16:10:17.133Z,86.14
2023-11-30T16:12:49.068Z,86.78
2023-11-30T16:15:17.789Z,88.01
2023-11-30T16:17:48.986Z,89.01
2023-11-30T16:20:17.652Z,89.56
2023-11-30T16:22:46.350Z,90.19
2023-11-30T16:25:15.579Z,91.23
2023-11-30T16:27:44.484Z,91.98
2023-11-30T16:30:14.540Z,91.64
2023-11-30T16:32:43.273Z,91.72
2023-11-30T16:35:13.495Z,92.63
2023-11-30T16:37:42.508Z,93.11
2023-11-30T16:40:12.203Z,92.52
2023-11-30T16:42:41.159Z,92.66
2023-11-30T16:45:10.365Z,93.23
2023-11-30T16:47:40.412Z,93.12
2023-11-30T16:50:14.756Z,93.30
2023-11-30T16:52:48.917Z,93.48
2023-11-30T16:55:17.758Z,92.61
2023-11-30T16:57:47.833Z,92.53
2023-11-30T17:00:17.983Z,92.60
2023-11-30T17:02:46.779Z,91.66
2023-11-30T17:05:15.610Z,91.07
2023-11-30T17:07:46.375Z,90.98
2023-11-30T17:10:14.922Z,91.21
2023-11-30T17:12:44.036Z,91.28
2023-11-30T17:15:12.704Z,91.31
2023-11-30T17:17:46.234Z,91.72
2023-11-30T17:20:15.026Z,91.64
2023-11-30T17:22:45.147Z,92.59
2023-11-30T17:25:15.651Z,92.45
2023-11-30T17:27:44.363Z,92.75
2023-11-30T17:30:13.689Z,92.77
2023-11-30T17:32:42.765Z,92.51
2023-11-30T17:35:11.965Z,92.84
2023-11-30T17:37:40.972Z,93.29
2023-11-30T17:40:12.087Z,93.86
2023-11-30T17:42:42.219Z,93.65
2023-11-30T17:45:14.606Z,93.23
2023-11-30T17:47:43.548Z,92.62
2023-11-30T17:50:12.598Z,92.39
2023-11-30T17:52:41.205Z,92.93
2023-11-30T17:55:10.648Z,93.12
2023-11-30T17:57:39.401Z,93.35
2023-11-30T18:00:11.608Z,93.03
2023-11-30T18:02:43.206Z,92.36
2023-11-30T18:05:11.930Z,92.83
2023-11-30T18:07:40.591Z,92.35
2023-11-30T18:10:10.663Z,91.92
2023-11-30T18:12:39.636Z,91.55
2023-11-30T18:15:11.158Z,91.71
2023-11-30T18:17:40.273Z,91.64
2023-11-30T18:20:27.314Z,91.79
2023-11-30T18:22:55.954Z,92.45
2023-11-30T18:25:24.554Z,92.42
2023-11-30T18:27:53.189Z,92.83
2023-11-30T18:30:23.185Z,93.22
2023-11-30T18:32:51.966Z,92.94
2023-11-30T18:35:20.629Z,93.18
2023-11-30T18:37:49.822Z,93.52
2023-11-30T18:40:18.648Z,93.87
2023-11-30T18:42:49.993Z,93.95
2023-11-30T18:45:18.627Z,93.73
2023-11-30T18:47:48.948Z,93.85
2023-11-30T18:50:17.848Z,94.03
2023-11-30T18:52:46.788Z,94.09
2023-11-30T18:55:15.696Z,93.41
2023-11-30T18:57:44.329Z,93.05
2023-11-30T19:00:14.971Z,92.74
2023-11-30T19:02:43.839Z,93.50
2023-11-30T19:05:19.101Z,93.46
2023-11-30T19:07:47.843Z,93.83
2023-11-30T19:10:17.829Z,94.02
2023-11-30T19:12:47.605Z,93.90
2023-11-30T19:15:16.751Z,93.93
2023-11-30T19:17:49.442Z,93.92
2023-11-30T19:20:20.033Z,93.55
2023-11-30T19:22:50.674Z,92.99
2023-11-30T19:25:19.429Z,93.06
2023-11-30T19:27:53.082Z,93.54
2023-11-30T19:30:22.555Z,93.22
2023-11-30T19:32:51.914Z,92.97
2023-11-30T19:35:22.536Z,92.53
2023-11-30T19:37:51.264Z,92.63
2023-11-30T19:40:20.256Z,91.93
2023-11-30T19:42:50.565Z,91.96
2023-11-30T19:45:19.873Z,91.59
2023-11-30T19:47:48.807Z,92.43
2023-11-30T19:50:17.757Z,92.00
2023-11-30T19:52:48.820Z,92.10
2023-11-30T19:55:17.850Z,92.24
2023-11-30T19:57:47.252Z,92.79
2023-11-30T20:00:16.507Z,93.85
2023-11-30T20:02:45.577Z,94.08
2023-11-30T20:05:22.874Z,93.89
2023-11-30T20:07:53.233Z,93.67
2023-11-30T20:10:22.149Z,93.31
2023-11-30T20:12:53.681Z,93.26
2023-11-30T20:15:23.957Z,93.53
2023-11-30T20:17:53.210Z,93.19
2023-11-30T20:20:22.350Z,93.62
2023-11-30T20:22:53.207Z,93.32
2023-11-30T20:25:22.089Z,92.63
2023-11-30T20:27:52.164Z,92.47
2023-11-30T20:30:20.999Z,92.06
2023-11-30T20:32:50.083Z,91.84
2023-11-30T20:35:21.539Z,91.75
2023-11-30T20:37:50.714Z,91.87
2023-11-30T20:40:20.900Z,91.70
2023-11-30T20:42:50.779Z,90.90
2023-11-30T20:45:19.620Z,91.00
2023-11-30T20:47:48.239Z,90.64
2023-11-30T20:50:16.980Z,89.97
2023-11-30T20:52:45.593Z,89.97
2023-11-30T20:55:15.817Z,90.07
2023-11-30T20:57:47.011Z,90.05
2023-11-30T21:00:16.092Z,89.78
2023-11-30T21:02:44.866Z,90.62
2023-11-30T21:05:13.589Z,90.31
2023-11-30T21:07:42.220Z,90.44
2023-11-30T21:10:13.875Z,90.17
2023-11-30T21:12:43.886Z,89.88
2023-11-30T21:15:14.220Z,89.76
2023-11-30T21:17:42.967Z,89.55
2023-11-30T21:20:11.840Z,89.42
2023-11-30T21:22:43.457Z,89.54
2023-11-30T21:25:12.202Z,89.27
2023-11-30T21:27:41.130Z,88.80
2023-11-30T21:30:10.786Z,89.05
2023-11-30T21:32:40.809Z,89.15
2023-11-30T21:35:10.104Z,88.98
2023-11-30T21:37:38.796Z,89.42
2023-11-30T21:40:08.685Z,88.90
2023-11-30T21:42:37.585Z,88.75
2023-11-30T21:45:06.978Z,88.31
2023-11-30T21:47:36.578Z,88.96
2023-11-30T21:50:19.085Z,88.74
2023-11-30T21:52:48.291Z,88.07
2023-11-30T21:55:17.717Z,87.85
2023-11-30T21:57:47.776Z,88.88
2023-11-30T22:00:17.920Z,88.67
2023-11-30T22:02:47.584Z,88.55
2023-11-30T22:05:26.761Z,88.43
2023-11-30T22:08:01.233Z,87.61
2023-11-30T22:10:29.707Z,88.00
2023-11-30T22:12:58.569Z,87.54
2023-11-30T22:15:27.377Z,87.70
2023-11-30T22:17:57.781Z,87.24
2023-11-30T22:20:27.952Z,87.16
2023-11-30T22:22:56.657Z,87.31
2023-11-30T22:25:25.321Z,86.48
2023-11-30T22:27:54.006Z,86.07
2023-11-30T22:30:22.563Z,86.08
2023-11-30T22:32:51.083Z,86.11
2023-11-30T22:35:19.872Z,86.09
2023-11-30T22:37:51.283Z,86.03
2023-11-30T22:40:20.368Z,85.74
2023-11-30T22:42:49.038Z,85.29
2023-11-30T22:45:17.705Z,84.76
2023-11-30T22:47:46.474Z,84.44
2023-11-30T22:50:15.441Z,84.26
2023-11-30T22:52:44.687Z,84.75
2023-11-30T22:55:15.150Z,84.07
2023-11-30T22:57:44.158Z,84.57
2023-11-30T23:00:21.143Z,83.89
2023-11-30T23:02:53.549Z,83.57
2023-11-30T23:05:25.764Z,83.05
2023-11-30T23:07:57.966Z,82.03
2023-11-30T23:10:28.369Z,82.38
2023-11-30T23:13:01.264Z,81.57
2023-11-30T23:15:30.561Z,81.89
2023-11-30T23:18:02.764Z,81.69
2023-11-30T23:20:45.955Z,81.62
2023-11-30T23:23:23.800Z,82.37
2023-11-30T23:25:57.635Z,83.26
2023-11-30T23:28:27.592Z,83.31
2023-11-30T23:30:59.151Z,83.40
2023-11-30T23:33:27.895Z,83.61
2023-11-30T23:35:59.600Z,83.61
2023-11-30T23:38:28.400Z,82.86
2023-11-30T23:41:02.369Z,82.74
2023-11-30T23:43:34.104Z,83.14
2023-11-30T23:46:10.149Z,83.27
2023-11-30T23:48:41.805Z,83.56
2023-11-30T23:51:13.412Z,83.48
2023-11-30T23:53:42.517Z,83.55
2023-11-30T23:56:15.692Z,83.06
2023-11-30T23:58:51.500Z,84.02
